Bergenfield, New Jersey
Current Conditions -  °F | °C
As of 4:51 PM on Thursday 27 Nov 2014 (Local Time) from KTEB Reporting Station
Overcast Overcast  
Wind Chill: 31°   Ceiling: 2400
Heat Index: 37°   Visibility: 10mi
Dew Point: 29°   Wind: 8mph
Humidity: 73%   Direction: 300°WNW
Pressure: 30.01"   Gusts: NA
Location:  40.93°N, 73.99°W
Report Text: KTEB 272151Z 30007KT 10SM OVC024 03/M02 A3001 RMK AO2 SLP160 T00281017 $
Loading
Personal Weather Stations






























Interactive Weather Map New forecast layout! Learn more

10-Day Weather Forecast

Advertisements
Track Severe Weather on mobile